Time;durP1;ratioP1;P1;durP2;ratioP2;P2;SDS_P1;SDS_P2;PMS_P1;PMS_P2;Temp;Humidity;BMP_temperature;BMP_pressure;BME280_temperature;BME280_humidity;BME280_pressure;Samples;Min_cycle;Max_cycle;Signal;HPM_P1;HPM_P2
2023/01/05 00:00:33;;;;;;;13.50;6.93;;;;;;;5.20;100.00;100473.97;6371544;27;20479;-80
2023/01/05 00:03:35;;;;;;;7.97;3.58;;;;;;;5.13;100.00;100481.09;6374772;27;20098;-80
2023/01/05 00:06:38;;;;;;;12.23;5.53;;;;;;;5.14;100.00;100475.00;6373020;27;20137;-81
2023/01/05 00:09:39;;;;;;;11.20;6.38;;;;;;;5.24;100.00;100466.06;6355854;27;20486;-79
2023/01/05 00:22:53;;;;;;;9.82;5.65;;;;;;;5.19;100.00;100443.84;6359938;27;20044;-81
2023/01/05 00:25:53;;;;;;;10.15;5.50;;;;;;;5.22;100.00;100434.22;6348919;27;20039;-80
2023/01/05 00:28:57;;;;;;;20.35;5.85;;;;;;;5.24;100.00;100421.25;6370355;27;20043;-80
2023/01/05 00:31:58;;;;;;;10.45;5.78;;;;;;;5.17;100.00;100412.00;6372839;27;20501;-81
2023/01/05 00:35:00;;;;;;;13.38;5.38;;;;;;;5.17;100.00;100399.06;6370682;27;20035;-81
2023/01/05 00:38:01;;;;;;;8.50;4.40;;;;;;;5.02;100.00;100408.16;6372336;27;20122;-80
2023/01/05 00:41:02;;;;;;;11.35;6.03;;;;;;;5.06;100.00;100399.41;6371818;27;20031;-80
2023/01/05 00:44:03;;;;;;;10.52;5.63;;;;;;;5.02;100.00;100403.84;6372559;27;20126;-80
2023/01/05 00:47:04;;;;;;;6.57;4.93;;;;;;;4.98;100.00;100398.81;6371713;27;20115;-81
2023/01/05 00:50:06;;;;;;;15.20;3.90;;;;;;;4.99;100.00;100409.09;6372520;27;20031;-80
2023/01/05 00:53:07;;;;;;;7.88;4.88;;;;;;;4.98;100.00;100403.97;6354554;27;20046;-79
2023/01/05 00:56:08;;;;;;;8.73;2.97;;;;;;;5.06;100.00;100404.56;6373148;27;20043;-80
2023/01/05 00:59:09;;;;;;;7.53;3.30;;;;;;;5.04;100.00;100409.81;6338942;27;20050;-81
2023/01/05 01:02:10;;;;;;;5.95;3.78;;;;;;;5.03;100.00;100390.00;6358642;27;20039;-80
2023/01/05 01:05:14;;;;;;;10.82;4.88;;;;;;;5.02;100.00;100402.97;6370921;27;20453;-80
2023/01/05 01:08:15;;;;;;;10.85;5.90;;;;;;;4.94;100.00;100390.31;6371244;27;20035;-80
2023/01/05 01:11:16;;;;;;;11.23;7.03;;;;;;;4.96;100.00;100388.53;6369418;27;20114;-80
2023/01/05 01:14:17;;;;;;;8.35;4.35;;;;;;;5.01;100.00;100375.44;6369892;27;20747;-80
2023/01/05 01:17:18;;;;;;;7.60;5.18;;;;;;;5.04;100.00;100367.56;6367432;27;20054;-80
2023/01/05 01:20:19;;;;;;;5.75;3.70;;;;;;;4.86;100.00;100363.88;6370824;27;20832;-80
2023/01/05 01:23:22;;;;;;;8.38;4.20;;;;;;;4.78;100.00;100371.84;6357504;27;20032;-80
2023/01/05 01:26:23;;;;;;;14.35;5.35;;;;;;;4.83;100.00;100379.47;6356121;27;20050;-79
2023/01/05 01:29:23;;;;;;;13.15;5.45;;;;;;;4.62;100.00;100376.66;6371962;27;20059;-79
2023/01/05 01:32:24;;;;;;;8.73;3.97;;;;;;;4.70;100.00;100394.53;6370630;27;20043;-80
2023/01/05 01:35:25;;;;;;;12.38;6.07;;;;;;;4.71;100.00;100398.78;6370939;27;20041;-80
2023/01/05 01:38:26;;;;;;;7.95;4.45;;;;;;;4.76;100.00;100404.69;6371030;28;20092;-81
2023/01/05 01:41:27;;;;;;;14.48;6.22;;;;;;;4.76;100.00;100415.00;6359636;28;20359;-81
2023/01/05 01:44:51;;;;;;;6.43;3.77;;;;;;;4.81;100.00;100420.88;6372399;27;20050;-81
2023/01/05 01:47:59;;;;;;;7.75;4.70;;;;;;;4.92;100.00;100399.88;6344974;28;20066;-82
2023/01/05 01:51:04;;;;;;;7.15;4.05;;;;;;;4.83;100.00;100387.22;6367032;28;20051;-82
2023/01/05 01:54:08;;;;;;;6.28;3.42;;;;;;;4.66;100.00;100359.31;6367592;28;20042;-83
2023/01/05 01:57:11;;;;;;;13.95;6.25;;;;;;;4.61;100.00;100345.69;6346293;28;20047;-83
2023/01/05 02:00:13;;;;;;;10.70;5.20;;;;;;;4.59;100.00;100326.78;6345116;28;20058;-83
2023/01/05 02:03:14;;;;;;;10.93;5.87;;;;;;;4.64;100.00;100323.19;6349073;28;20031;-83
2023/01/05 02:06:18;;;;;;;18.58;6.00;;;;;;;4.69;100.00;100311.84;6370661;27;20066;-84
2023/01/05 02:09:19;;;;;;;5.93;3.15;;;;;;;4.59;100.00;100283.72;6363716;28;20403;-82
2023/01/05 02:12:37;;;;;;;14.48;5.07;;;;;;;4.67;100.00;100273.13;6357743;28;20035;-83
2023/01/05 02:15:53;;;;;;;9.95;5.35;;;;;;;4.54;100.00;100283.03;6371016;28;20031;-83
2023/01/05 02:19:33;;;;;;;12.98;6.22;;;;;;;4.68;100.00;100271.41;6370908;28;20450;-83
2023/01/05 02:23:11;;;;;;;8.63;4.85;;;;;;;4.61;100.00;100255.22;6355725;28;20507;-82
2023/01/05 02:26:38;;;;;;;18.00;5.75;;;;;;;4.71;100.00;100222.16;6357490;28;20035;-83
2023/01/05 02:29:48;;;;;;;12.65;6.40;;;;;;;4.71;100.00;100217.84;6359048;28;20039;-83
2023/01/05 02:33:31;;;;;;;10.07;5.07;;;;;;;4.67;100.00;100215.41;6355432;28;20038;-83
2023/01/05 02:36:32;;;;;;;;;;;;;;;4.67;100.00;100207.66;6372341;28;20058;-82
2023/01/05 02:39:38;;;;;;;10.27;5.53;;;;;;;4.68;100.00;100214.53;6370463;28;19923;-83
2023/01/05 02:42:41;;;;;;;13.15;5.57;;;;;;;4.66;100.00;100219.75;6371352;27;20068;-83
2023/01/05 02:45:44;;;;;;;10.55;5.78;;;;;;;4.76;100.00;100225.47;6357125;27;20387;-83
2023/01/05 02:48:52;;;;;;;8.90;6.80;;;;;;;4.71;100.00;100223.00;6349701;28;20063;-83
2023/01/05 02:51:59;;;;;;;6.80;4.63;;;;;;;4.64;100.00;100219.78;6349676;28;20085;-83
2023/01/05 02:55:06;;;;;;;8.15;5.38;;;;;;;4.71;100.00;100212.66;6349457;28;20059;-84
2023/01/05 02:58:30;;;;;;;15.43;5.88;;;;;;;4.72;100.00;100222.13;6361503;27;20146;-83
2023/01/05 03:01:39;;;;;;;13.65;6.95;;;;;;;4.65;100.00;100187.03;6376024;27;20373;-83
2023/01/05 03:04:52;;;;;;;8.60;4.55;;;;;;;4.70;100.00;100194.66;6374757;27;20057;-83
2023/01/05 03:08:05;;;;;;;9.07;4.22;;;;;;;4.71;100.00;100194.56;6372749;27;20050;-82
2023/01/05 03:14:41;;;;;;;13.80;5.72;;;;;;;4.76;100.00;100200.44;6375264;27;20042;-82
2023/01/05 03:17:53;;;;;;;14.88;6.35;;;;;;;4.69;100.00;100187.78;6374345;27;20512;-83
2023/01/05 03:20:55;;;;;;;10.18;4.95;;;;;;;4.77;100.00;100186.59;6364777;27;20044;-83
2023/01/05 03:37:36;;;;;;;7.13;4.72;;;;;;;4.76;100.00;100122.88;6374831;27;20084;-83
2023/01/05 03:40:38;;;;;;;7.50;4.28;;;;;;;4.75;100.00;100121.19;6373675;27;20045;-83
2023/01/05 03:43:42;;;;;;;6.18;3.88;;;;;;;4.79;100.00;100129.69;6363704;27;20047;-82
2023/01/05 03:46:47;;;;;;;15.23;6.47;;;;;;;4.89;100.00;100143.13;6352151;27;20050;-82
2023/01/05 03:49:48;;;;;;;6.20;4.10;;;;;;;4.72;100.00;100117.88;6348114;28;20035;-82
2023/01/05 03:52:51;;;;;;;6.15;4.28;;;;;;;4.78;100.00;100121.09;6347810;28;20040;-83
2023/01/05 03:55:52;;;;;;;10.70;5.47;;;;;;;4.83;100.00;100120.91;6346417;28;20491;-83
2023/01/05 03:58:52;;;;;;;7.00;4.63;;;;;;;4.84;100.00;100122.63;6360558;27;20080;-83
2023/01/05 04:01:53;;;;;;;7.97;4.78;;;;;;;4.74;100.00;100104.00;6373528;27;20372;-83
2023/01/05 04:04:54;;;;;;;9.60;4.63;;;;;;;4.69;100.00;100097.31;6372872;27;20114;-81
2023/01/05 04:07:55;;;;;;;11.60;5.10;;;;;;;4.75;100.00;100118.59;6374570;27;20081;-82
2023/01/05 04:10:57;;;;;;;10.00;5.32;;;;;;;4.79;100.00;100102.09;6357139;27;20055;-83
2023/01/05 04:13:59;;;;;;;17.63;7.07;;;;;;;4.75;100.00;100087.59;6363757;27;20493;-83
2023/01/05 04:17:00;;;;;;;9.60;3.85;;;;;;;4.77;100.00;100080.63;6373018;27;20095;-83
2023/01/05 04:20:01;;;;;;;10.80;6.05;;;;;;;4.83;100.00;100089.91;6369787;27;20554;-84
2023/01/05 04:23:01;;;;;;;5.10;3.58;;;;;;;4.85;100.00;100075.16;6371965;27;20039;-83
2023/01/05 04:26:02;;;;;;;12.07;6.40;;;;;;;4.78;100.00;100097.81;6372862;27;20043;-83
2023/01/05 04:29:06;;;;;;;10.68;4.93;;;;;;;4.77;100.00;100103.88;6361917;27;20243;-84
2023/01/05 04:32:07;;;;;;;14.27;6.10;;;;;;;4.84;100.00;100091.59;6345420;28;20043;-81
2023/01/05 04:35:08;;;;;;;7.75;4.70;;;;;;;4.80;100.00;100083.09;6356357;27;20035;-84
2023/01/05 04:38:10;;;;;;;10.30;5.10;;;;;;;4.89;100.00;100066.41;6373506;27;20376;-84
2023/01/05 04:41:11;;;;;;;14.23;6.43;;;;;;;4.84;100.00;100074.34;6372250;27;20577;-84
2023/01/05 04:44:12;;;;;;;11.57;4.93;;;;;;;4.94;100.00;100068.81;6362601;27;20059;-83
2023/01/05 04:47:13;;;;;;;15.82;6.90;;;;;;;4.89;100.00;100070.75;6370828;27;20039;-84
2023/01/05 04:50:16;;;;;;;10.18;5.38;;;;;;;4.82;100.00;100052.03;6369931;27;20096;-83
2023/01/05 04:53:19;;;;;;;13.52;7.25;;;;;;;4.95;100.00;100052.41;6360443;27;20040;-84
2023/01/05 04:56:20;;;;;;;8.95;5.28;;;;;;;4.94;100.00;100049.00;6370445;27;20104;-84
2023/01/05 04:59:21;;;;;;;10.35;5.10;;;;;;;5.00;100.00;100038.41;6370312;27;20035;-83
2023/01/05 05:02:22;;;;;;;11.82;6.30;;;;;;;5.08;100.00;100032.91;6371394;27;20047;-83
2023/01/05 05:05:25;;;;;;;13.45;6.75;;;;;;;5.13;100.00;100031.00;6359299;27;20039;-83
2023/01/05 05:08:26;;;;;;;12.18;5.82;;;;;;;5.05;100.00;100023.53;6377666;27;20047;-83
2023/01/05 05:11:29;;;;;;;10.63;5.13;;;;;;;5.10;100.00;100022.53;6346709;28;20044;-82
2023/01/05 05:14:29;;;;;;;14.35;6.97;;;;;;;5.04;100.00;100026.19;6370649;27;20045;-82
2023/01/05 05:17:30;;;;;;;9.88;5.68;;;;;;;5.06;100.00;100021.78;6363153;27;20047;-84
2023/01/05 05:20:34;;;;;;;9.32;5.38;;;;;;;5.10;100.00;100019.94;6352085;27;20043;-82
2023/01/05 05:23:35;;;;;;;12.00;5.78;;;;;;;5.01;100.00;100006.47;6367437;27;20501;-83
2023/01/05 05:26:35;;;;;;;9.98;5.03;;;;;;;4.89;100.00;99998.34;6346702;27;20052;-84
2023/01/05 05:29:39;;;;;;;14.32;6.35;;;;;;;4.98;100.00;99988.50;6353295;27;20043;-82
2023/01/05 05:32:39;;;;;;;15.63;5.68;;;;;;;4.98;100.00;99978.16;6360348;27;20040;-83
2023/01/05 05:35:41;;;;;;;9.05;4.57;;;;;;;4.91;100.00;99965.50;6345470;28;20039;-84
2023/01/05 05:38:41;;;;;;;9.35;5.18;;;;;;;4.96;100.00;99961.84;6365780;27;20038;-84
2023/01/05 05:41:42;;;;;;;9.45;5.40;;;;;;;4.96;100.00;99961.84;6371288;27;20388;-83
2023/01/05 05:44:43;;;;;;;13.23;5.38;;;;;;;4.95;100.00;99960.16;6353205;28;20047;-85
2023/01/05 05:47:44;;;;;;;14.73;5.82;;;;;;;5.04;100.00;99958.94;6367610;28;20096;-83
2023/01/05 05:50:45;;;;;;;16.27;6.00;;;;;;;5.00;100.00;99953.06;6371009;27;20402;-83
2023/01/05 05:53:45;;;;;;;8.45;6.10;;;;;;;5.06;100.00;99931.28;6369586;28;20036;-82
2023/01/05 05:56:48;;;;;;;9.68;5.60;;;;;;;5.00;100.00;99918.59;6353671;28;20047;-84
2023/01/05 05:59:50;;;;;;;9.63;5.57;;;;;;;5.04;100.00;99935.66;6354286;27;20068;-83
2023/01/05 06:02:51;;;;;;;12.68;5.53;;;;;;;5.14;100.00;99962.00;6345308;28;20082;-83
2023/01/05 06:05:52;;;;;;;13.18;6.45;;;;;;;5.07;100.00;99951.06;6361649;28;20486;-83
2023/01/05 06:08:53;;;;;;;14.93;5.53;;;;;;;5.04;100.00;99951.19;6359124;28;20040;-82
2023/01/05 06:11:54;;;;;;;18.92;6.50;;;;;;;5.01;100.00;99957.31;6355897;28;20380;-82
2023/01/05 06:14:54;;;;;;;6.28;4.05;;;;;;;4.97;100.00;99940.25;6360938;28;20035;-83
2023/01/05 06:17:55;;;;;;;11.38;5.88;;;;;;;4.94;100.00;99926.59;6368659;28;20544;-82
2023/01/05 06:20:58;;;;;;;19.35;6.57;;;;;;;4.94;100.00;99950.72;6336793;27;20048;-83
2023/01/05 06:23:59;;;;;;;15.43;4.53;;;;;;;4.93;100.00;99922.34;6373282;27;20031;-82
2023/01/05 06:27:00;;;;;;;12.32;6.70;;;;;;;4.96;100.00;99948.06;6371762;27;20045;-83
2023/01/05 06:30:01;;;;;;;10.63;5.18;;;;;;;4.93;100.00;99955.94;6356637;27;20042;-82
2023/01/05 06:33:04;;;;;;;7.93;5.65;;;;;;;4.90;100.00;99936.25;6354490;27;20096;-83
2023/01/05 06:36:05;;;;;;;10.75;5.95;;;;;;;5.03;100.00;99939.16;6366943;27;20039;-83
2023/01/05 06:39:08;;;;;;;12.40;6.05;;;;;;;4.97;100.00;99932.50;6376762;27;20046;-82
2023/01/05 06:42:09;;;;;;;7.70;4.68;;;;;;;5.03;100.00;99934.00;6375201;27;20041;-83
2023/01/05 06:45:13;;;;;;;10.30;5.13;;;;;;;5.01;100.00;99928.03;6375291;27;20051;-83
2023/01/05 06:48:14;;;;;;;7.63;5.30;;;;;;;5.08;100.00;99910.53;6373402;27;20043;-84
2023/01/05 06:51:15;;;;;;;11.65;6.47;;;;;;;4.95;100.00;99890.34;6374257;27;20368;-84
2023/01/05 06:54:18;;;;;;;8.10;4.80;;;;;;;4.99;100.00;99896.22;6374660;27;20043;-84
2023/01/05 06:57:19;;;;;;;9.00;5.53;;;;;;;4.98;100.00;99891.94;6369001;27;20039;-84
2023/01/05 07:00:20;;;;;;;11.68;5.82;;;;;;;5.01;100.00;99887.50;6365091;27;20518;-84
2023/01/05 07:03:23;;;;;;;9.35;4.97;;;;;;;4.98;100.00;99905.75;6353736;27;20051;-83
2023/01/05 07:06:24;;;;;;;9.32;5.35;;;;;;;5.03;100.00;99895.22;6355165;27;20043;-83
2023/01/05 07:09:25;;;;;;;13.23;7.07;;;;;;;5.15;100.00;99899.03;6348002;28;20483;-84
2023/01/05 07:12:26;;;;;;;13.05;6.10;;;;;;;5.05;100.00;99891.66;6347810;28;20085;-84
2023/01/05 07:15:27;;;;;;;8.45;4.57;;;;;;;5.13;100.00;99901.69;6347854;27;20039;-83
2023/01/05 07:18:28;;;;;;;12.65;6.32;;;;;;;5.14;100.00;99910.28;6372124;27;20127;-82
2023/01/05 07:21:28;;;;;;;9.13;5.25;;;;;;;5.19;100.00;99893.69;6361417;27;20151;-83
2023/01/05 07:24:30;;;;;;;7.80;5.47;;;;;;;5.16;100.00;99883.44;6341825;28;20079;-82
2023/01/05 07:27:30;;;;;;;11.50;6.15;;;;;;;5.28;100.00;99900.22;6346696;28;20044;-82
2023/01/05 07:30:34;;;;;;;9.00;5.60;;;;;;;5.28;100.00;99889.84;6328961;28;20051;-82
2023/01/05 07:33:36;;;;;;;13.82;6.78;;;;;;;5.34;100.00;99891.34;6368063;27;20050;-82
2023/01/05 07:36:37;;;;;;;7.68;4.78;;;;;;;5.40;100.00;99893.69;6368965;27;20050;-82
2023/01/05 07:39:39;;;;;;;12.10;6.80;;;;;;;5.56;100.00;99878.31;6354159;27;20051;-82
2023/01/05 07:42:39;;;;;;;11.13;6.13;;;;;;;5.59;100.00;99885.97;6369817;27;20498;-83
2023/01/05 07:45:40;;;;;;;6.68;4.82;;;;;;;5.55;100.00;99885.25;6372041;27;20056;-82
2023/01/05 07:48:41;;;;;;;8.80;5.57;;;;;;;5.60;100.00;99895.41;6349885;27;20040;-83
2023/01/05 07:51:42;;;;;;;9.07;5.25;;;;;;;5.64;100.00;99896.94;6378584;27;20043;-84
2023/01/05 07:54:44;;;;;;;16.10;6.07;;;;;;;5.77;100.00;99882.59;6361336;27;20044;-83
2023/01/05 07:57:45;;;;;;;9.13;6.07;;;;;;;5.80;100.00;99879.00;6368403;27;20047;-82
2023/01/05 08:00:46;;;;;;;9.00;5.45;;;;;;;5.71;100.00;99869.06;6370616;27;20134;-81
2023/01/05 08:03:47;;;;;;;10.48;5.90;;;;;;;5.77;100.00;99885.19;6363629;27;20040;-81
2023/01/05 08:06:48;;;;;;;8.60;4.70;;;;;;;5.80;100.00;99866.06;6338342;28;20048;-81
2023/01/05 08:16:31;;;;;;;12.93;6.00;;;;;;;5.67;100.00;99867.53;6346280;28;20123;-82
2023/01/05 08:19:32;;;;;;;9.60;5.22;;;;;;;5.65;100.00;99867.59;6350888;27;20496;-82
2023/01/05 08:22:35;;;;;;;12.18;4.95;;;;;;;5.65;100.00;99857.22;6361046;27;20036;-82
2023/01/05 08:25:36;;;;;;;13.77;7.07;;;;;;;5.74;100.00;99845.63;6368505;27;20042;-81
2023/01/05 08:28:37;;;;;;;7.95;4.40;;;;;;;5.84;100.00;99837.38;6370016;27;20066;-81
2023/01/05 08:31:38;;;;;;;5.53;3.67;;;;;;;5.76;100.00;99851.56;6371340;27;20406;-81
2023/01/05 08:34:39;;;;;;;6.20;4.45;;;;;;;5.79;100.00;99862.66;6369144;27;20035;-81
2023/01/05 08:37:43;;;;;;;8.57;4.72;;;;;;;5.80;100.00;99860.88;6370165;27;20039;-81
2023/01/05 08:40:44;;;;;;;14.23;5.53;;;;;;;5.86;100.00;99864.03;6369833;27;20047;-81
2023/01/05 08:43:56;;;;;;;5.07;3.10;;;;;;;5.74;100.00;99858.56;6360614;27;20490;-81
2023/01/05 08:46:57;;;;;;;10.93;5.45;;;;;;;5.86;100.00;99858.84;6347491;28;20051;-83
2023/01/05 08:49:58;;;;;;;8.55;5.07;;;;;;;5.90;100.00;99872.53;6371807;27;20035;-81
2023/01/05 08:53:00;;;;;;;5.60;3.88;;;;;;;5.84;100.00;99862.44;6371096;27;20051;-81
2023/01/05 08:56:01;;;;;;;25.95;4.57;;;;;;;5.81;100.00;99855.66;6360118;27;20521;-81
2023/01/05 08:59:02;;;;;;;11.85;5.35;;;;;;;5.64;100.00;99853.81;6344631;28;20482;-81
2023/01/05 09:02:03;;;;;;;8.13;5.15;;;;;;;5.70;100.00;99844.09;6363051;27;20491;-81
2023/01/05 09:05:05;;;;;;;11.80;6.20;;;;;;;5.76;100.00;99836.03;6380616;27;20547;-82
2023/01/05 09:08:06;;;;;;;9.10;5.82;;;;;;;5.75;100.00;99842.16;6358948;27;20051;-83
2023/01/05 09:11:09;;;;;;;8.43;4.60;;;;;;;5.78;100.00;99844.59;6372838;27;20176;-84
2023/01/05 09:14:13;;;;;;;9.00;4.50;;;;;;;5.63;100.00;99852.13;6371501;27;20395;-82
2023/01/05 09:17:14;;;;;;;9.30;4.80;;;;;;;5.70;100.00;99852.69;6353965;27;20050;-83
2023/01/05 09:20:15;;;;;;;5.40;4.03;;;;;;;5.76;100.00;99855.00;6371473;27;20039;-82
2023/01/05 09:23:16;;;;;;;8.10;4.28;;;;;;;5.71;100.00;99844.03;6371053;27;20043;-82
2023/01/05 09:26:17;;;;;;;12.25;4.10;;;;;;;5.61;100.00;99853.94;6369481;27;20058;-82
2023/01/05 09:29:18;;;;;;;8.50;4.33;;;;;;;5.84;100.00;99836.53;6358521;27;20039;-82
2023/01/05 09:32:19;;;;;;;8.43;3.78;;;;;;;5.83;100.00;99843.47;6370845;27;20293;-81
2023/01/05 09:35:21;;;;;;;7.25;4.93;;;;;;;5.82;100.00;99838.34;6369736;27;20110;-82
2023/01/05 09:38:22;;;;;;;12.93;5.68;;;;;;;5.76;100.00;99830.88;6371169;27;20043;-82
2023/01/05 09:41:32;;;;;;;11.77;5.67;;;;;;;5.80;100.00;99807.34;6371327;27;20410;-82
2023/01/05 09:44:46;;;;;;;6.93;4.68;;;;;;;5.82;100.00;99802.09;6370875;27;20494;-81
2023/01/05 09:47:47;;;;;;;8.05;5.10;;;;;;;5.75;100.00;99792.94;6371073;28;20503;-81
2023/01/05 09:50:50;;;;;;;9.27;4.18;;;;;;;5.70;100.00;99793.13;6371938;27;20043;-82
2023/01/05 09:53:51;;;;;;;11.88;4.90;;;;;;;5.79;100.00;99784.13;6371267;27;20456;-81
2023/01/05 09:56:52;;;;;;;9.32;4.78;;;;;;;5.83;100.00;99790.84;6376917;27;20047;-81
2023/01/05 09:59:58;;;;;;;9.00;4.63;;;;;;;5.86;100.00;99786.34;6376390;27;20086;-82
2023/01/05 10:03:04;;;;;;;7.55;4.53;;;;;;;5.90;100.00;99787.06;6376235;27;20051;-82
2023/01/05 10:06:14;;;;;;;8.20;4.88;;;;;;;5.93;100.00;99786.94;6375602;27;20043;-82
2023/01/05 10:09:22;;;;;;;6.82;4.90;;;;;;;6.07;100.00;99791.50;6366731;27;20039;-81
2023/01/05 10:13:02;;;;;;;11.60;5.32;;;;;;;5.99;100.00;99798.78;6358482;27;20051;-82
2023/01/05 10:16:03;;;;;;;7.20;4.35;;;;;;;5.98;100.00;99784.16;6358251;27;20051;-81
2023/01/05 10:19:10;;;;;;;12.75;5.43;;;;;;;5.99;100.00;99791.00;6375172;27;20039;-81
2023/01/05 10:22:23;;;;;;;6.05;3.85;;;;;;;5.97;100.00;99779.88;6374401;27;20572;-83
2023/01/05 10:25:44;;;;;;;11.43;6.28;;;;;;;5.92;100.00;99785.25;6357650;27;20399;-82
2023/01/05 10:29:12;;;;;;;6.90;3.95;;;;;;;5.97;100.00;99767.78;6368846;27;20042;-84
2023/01/05 10:32:25;;;;;;;8.95;6.05;;;;;;;6.09;100.00;99756.00;6348202;28;20048;-82
2023/01/05 10:35:40;;;;;;;7.63;4.57;;;;;;;6.03;100.00;99743.34;6364637;27;20505;-82
2023/01/05 10:38:59;;;;;;;8.02;4.93;;;;;;;6.09;100.00;99737.84;6373600;27;20591;-82
2023/01/05 10:42:33;;;;;;;10.60;5.38;;;;;;;6.17;100.00;99727.97;6356450;27;20092;-81
2023/01/05 10:45:36;;;;;;;12.15;5.57;;;;;;;6.18;100.00;99734.84;6342894;27;20059;-83
2023/01/05 10:48:37;;;;;;;;;;;;;;;6.33;100.00;99740.22;6375018;27;20047;-82
2023/01/05 10:51:37;;;;;;;6.10;3.75;;;;;;;6.30;100.00;99735.16;6368730;27;19973;-83
2023/01/05 10:54:46;;;;;;;7.95;5.22;;;;;;;6.24;100.00;99719.00;6374346;27;20035;-84
2023/01/05 10:57:47;;;;;;;4.93;3.65;;;;;;;6.18;100.00;99726.25;6375753;27;20402;-84
2023/01/05 11:00:49;;;;;;;6.43;4.43;;;;;;;6.16;100.00;99731.50;6376488;27;20047;-85
2023/01/05 11:03:54;;;;;;;12.80;5.17;;;;;;;6.07;100.00;99750.03;6358455;27;20050;-84
2023/01/05 11:07:06;;;;;;;16.30;7.03;;;;;;;6.19;100.00;99746.03;6373905;27;20039;-84
2023/01/05 11:10:22;;;;;;;9.57;5.10;;;;;;;6.19;100.00;99741.69;6347040;27;20151;-84
2023/01/05 11:13:29;;;;;;;7.93;5.85;;;;;;;6.30;100.00;99732.56;6349438;28;20130;-84
2023/01/05 11:16:37;;;;;;;9.48;5.32;;;;;;;6.26;100.00;99711.16;6351483;27;20655;-84
2023/01/05 11:19:46;;;;;;;8.68;6.07;;;;;;;6.21;100.00;99697.59;6374111;27;20044;-82
2023/01/05 11:22:48;;;;;;;11.88;4.85;;;;;;;6.14;100.00;99696.22;6375032;27;20118;-81
2023/01/05 11:25:49;;;;;;;9.20;5.00;;;;;;;6.27;100.00;99699.88;6371865;27;20040;-82
2023/01/05 11:29:08;;;;;;;5.50;4.25;;;;;;;6.30;100.00;99691.97;6354746;27;20058;-82
2023/01/05 11:32:12;;;;;;;12.18;7.30;;;;;;;6.20;100.00;99678.63;6328944;28;20423;-82
2023/01/05 11:35:24;;;;;;;9.15;5.20;;;;;;;6.30;100.00;99679.00;6358276;27;20039;-83
2023/01/05 11:38:28;;;;;;;8.75;5.22;;;;;;;6.21;100.00;99664.72;6365328;27;20461;-83
2023/01/05 11:41:29;;;;;;;7.53;4.65;;;;;;;6.23;100.00;99669.84;6372143;27;20415;-84
2023/01/05 11:44:32;;;;;;;8.70;3.85;;;;;;;6.35;100.00;99648.50;6373702;27;20201;-84
2023/01/05 11:47:42;;;;;;;8.13;4.82;;;;;;;6.43;100.00;99625.63;6374185;27;20420;-84
2023/01/05 11:50:49;;;;;;;8.02;4.68;;;;;;;6.32;100.00;99588.22;6374079;27;20511;-83
2023/01/05 11:53:50;;;;;;;8.95;5.43;;;;;;;6.16;100.00;99550.16;6356766;27;20054;-83
2023/01/05 11:57:11;;;;;;;11.07;6.13;;;;;;;6.37;100.00;99558.56;6373817;27;20039;-83
2023/01/05 12:00:24;;;;;;;9.88;6.25;;;;;;;6.52;100.00;99594.97;6373354;27;20043;-84
2023/01/05 12:03:47;;;;;;;9.85;5.68;;;;;;;6.64;100.00;99583.97;6373502;27;20039;-85
2023/01/05 12:06:51;;;;;;;12.05;5.97;;;;;;;6.73;100.00;99567.94;6356242;27;20050;-83
2023/01/05 12:09:51;;;;;;;7.30;4.28;;;;;;;6.79;100.00;99552.03;6374196;27;20049;-84
2023/01/05 12:12:52;;;;;;;5.38;3.72;;;;;;;6.87;100.00;99536.09;6374230;27;20597;-84
2023/01/05 12:15:56;;;;;;;11.82;5.97;;;;;;;6.93;100.00;99555.66;6362004;27;20126;-83
2023/01/05 12:19:06;;;;;;;11.95;5.10;;;;;;;6.86;100.00;99556.00;6371437;27;20075;-84
2023/01/05 12:22:35;;;;;;;11.32;6.20;;;;;;;7.10;100.00;99578.94;6373330;27;20043;-84
2023/01/05 12:26:03;;;;;;;10.55;6.13;;;;;;;7.07;100.00;99594.69;6373294;27;20059;-84
2023/01/05 12:29:21;;;;;;;12.48;5.97;;;;;;;7.03;100.00;99608.72;6372372;27;20043;-84
2023/01/05 12:32:48;;;;;;;9.45;4.90;;;;;;;7.14;100.00;99616.75;6372660;27;20035;-83
2023/01/05 12:36:07;;;;;;;5.85;3.72;;;;;;;7.22;100.00;99627.56;6372470;27;20479;-84
2023/01/05 12:39:45;;;;;;;11.07;4.88;;;;;;;7.30;100.00;99616.78;6355452;27;20415;-84
2023/01/05 12:42:52;;;;;;;7.50;4.90;;;;;;;7.30;100.00;99618.53;6372170;27;20122;-83
2023/01/05 12:46:14;;;;;;;8.63;5.55;;;;;;;7.32;100.00;99612.34;6367972;27;20139;-84
2023/01/05 12:49:25;;;;;;;8.23;5.60;;;;;;;7.51;100.00;99621.72;6363281;27;20153;-85
2023/01/05 12:52:38;;;;;;;8.02;5.70;;;;;;;7.40;100.00;99637.88;6372422;27;20042;-84
2023/01/05 12:55:44;;;;;;;12.20;6.57;;;;;;;7.46;100.00;99612.41;6372713;27;20039;-84
2023/01/05 12:59:11;;;;;;;8.90;5.45;;;;;;;7.56;100.00;99617.94;6354894;27;20047;-83
2023/01/05 13:02:39;;;;;;;8.40;5.55;;;;;;;7.47;100.00;99608.06;6373289;27;20080;-82
2023/01/05 13:05:45;;;;;;;10.88;5.70;;;;;;;7.54;100.00;99604.22;6345675;28;20047;-82
2023/01/05 13:08:57;;;;;;;12.45;6.45;;;;;;;7.62;100.00;99602.03;6329210;28;20065;-83
2023/01/05 13:12:06;;;;;;;10.85;6.10;;;;;;;7.64;100.00;99602.78;6346947;28;20051;-83
2023/01/05 13:15:10;;;;;;;14.10;6.78;;;;;;;7.72;100.00;99604.97;6346279;28;20506;-83
2023/01/05 13:18:16;;;;;;;8.18;5.47;;;;;;;7.61;100.00;99605.53;6346221;28;20455;-83
2023/01/05 13:21:20;;;;;;;10.38;5.82;;;;;;;7.69;100.00;99606.88;6361588;27;20035;-82
2023/01/05 13:24:33;;;;;;;7.13;4.68;;;;;;;7.73;100.00;99598.00;6354830;27;20092;-84
2023/01/05 13:27:36;;;;;;;7.43;4.93;;;;;;;7.69;100.00;99615.50;6371129;27;20043;-82
2023/01/05 13:30:45;;;;;;;6.97;4.80;;;;;;;7.81;100.00;99612.22;6369198;27;20047;-84
2023/01/05 13:33:57;;;;;;;5.40;3.45;;;;;;;7.80;100.00;99625.28;6354274;27;20652;-83
2023/01/05 13:37:32;;;;;;;3.00;2.60;;;;;;;7.88;100.00;99636.91;6371554;27;20506;-84
2023/01/05 13:40:47;;;;;;;4.45;2.95;;;;;;;7.86;100.00;99612.81;6371135;27;20439;-83
2023/01/05 13:44:09;;;;;;;5.65;3.80;;;;;;;8.01;100.00;99624.09;6372213;27;20050;-82
2023/01/05 13:47:16;;;;;;;5.45;3.58;;;;;;;8.06;100.00;99621.22;6371122;28;20043;-82
2023/01/05 13:50:32;;;;;;;4.10;2.95;;;;;;;8.03;100.00;99635.22;6371156;28;20070;-84
2023/01/05 13:53:38;;;;;;;4.55;2.80;;;;;;;8.07;100.00;99631.53;6372240;28;20047;-82
2023/01/05 13:56:39;;;;;;;2.60;2.38;;;;;;;7.98;100.00;99629.44;6371165;28;20046;-82
2023/01/05 13:59:42;;;;;;;5.15;2.95;;;;;;;8.07;100.00;99633.25;6370254;28;20047;-82
2023/01/05 14:02:44;;;;;;;;;;;;;;;8.08;100.00;99638.38;6354582;28;20066;-82
2023/01/05 14:05:53;;;;;;;9.02;2.20;;;;;;;7.99;100.00;99622.47;6372192;27;19926;-84
2023/01/05 14:09:14;;;;;;;4.00;2.25;;;;;;;8.10;100.00;99640.91;6370488;28;20047;-82
2023/01/05 14:12:18;;;;;;;3.50;2.00;;;;;;;8.11;100.00;99631.34;6327362;28;20051;-83
2023/01/05 14:15:38;;;;;;;2.50;2.15;;;;;;;8.10;100.00;99642.66;6328263;28;20059;-84
2023/01/05 14:18:50;;;;;;;5.05;2.63;;;;;;;8.14;100.00;99636.38;6345288;28;20510;-83
2023/01/05 14:21:58;;;;;;;6.93;2.10;;;;;;;8.25;100.00;99650.41;6365752;28;20110;-83
2023/01/05 14:25:37;;;;;;;3.53;2.58;;;;;;;8.22;100.00;99655.78;6372099;27;20035;-82
2023/01/05 14:28:44;;;;;;;5.32;2.60;;;;;;;8.18;100.00;99637.88;6370870;28;20039;-83
2023/01/05 14:31:46;;;;;;;4.97;3.17;;;;;;;8.25;100.00;99650.41;6371045;28;20035;-83
2023/01/05 14:34:55;;;;;;;2.65;2.20;;;;;;;8.19;100.00;99640.34;6353957;28;20051;-88
2023/01/05 14:38:20;;;;;;;3.83;2.17;;;;;;;8.24;100.00;99653.09;6370913;28;20035;-82
2023/01/05 14:41:26;;;;;;;2.40;1.80;;;;;;;8.19;100.00;99655.13;6372946;27;20036;-84
2023/01/05 14:45:01;;;;;;;3.28;2.08;;;;;;;8.21;100.00;99650.66;6375333;27;20506;-83
2023/01/05 14:48:25;;;;;;;3.25;1.73;;;;;;;8.12;100.00;99648.63;6365333;27;20123;-83
2023/01/05 14:51:34;;;;;;;1.95;1.58;;;;;;;8.18;100.00;99650.88;6350053;28;20039;-83
2023/01/05 14:54:59;;;;;;;3.85;1.67;;;;;;;8.22;100.00;99650.59;6349600;28;20040;-82
2023/01/05 14:58:13;;;;;;;3.17;1.67;;;;;;;8.28;100.00;99659.81;6332747;28;20492;-83
2023/01/05 15:01:19;;;;;;;2.25;1.60;;;;;;;8.32;100.00;99653.50;6354448;27;20043;-82